Vremea acum in Năvodari - Romania

Vrei sa afli care e starea vremii acum in Constanta - Romania? Dorim sa iti furnizam starea vremii pentru Constanta - Romania. Starea vremii Constanta - Romania pentru astazi.

Vremea acum in Năvodari

Temperatura: 5.3 °C

Este: Senin
Se simte ca: 4 °C
Innorat: 0 %
Precipitatii: 0 %
Presiune atmosferica: 1015 hPa
Umiditate: 75%
Vizibilitate: 10 km
Vantul bate din NNE cu 6.1 km/h

Evolutia vremii in Năvodari pe ore

Ora: 04:00
Senin
Temperatura: 5.3°C
Sansa de precipitatii: 0%
Ora Descriere Temp Se simte Precipitatii Umiditate Vant
00:00Senin10.1°9.7°0%59%NW 5.8 KM/H
01:00Senin9.5°8.8°0%61%NW 6.5 KM/H
02:00Senin9.3°8.4°0%61%NNW 6.8 KM/H
03:00Senin8.9°8.1°0%61%N 6.5 KM/H
04:00Senin5.3°0%75%NNE 6.1 KM/H
05:00Senin8.7°7.8°0%62%NNE 6.5 KM/H
06:00Senin8.5°7.5°0%63%NNE 7.2 KM/H
07:00Senin9.9°9.1°0%63%NNE 6.8 KM/H
08:00Senin12°11.6°0%56%NE 7.2 KM/H
09:00Senin13.9°13.3°0%53%ENE 10.4 KM/H
10:00Senin15.2°15.2°0%52%E 12.2 KM/H
11:00Senin16°16°0%50%E 13.7 KM/H
12:00Senin16.5°16.5°0%49%ESE 14.4 KM/H
13:00Senin16.8°16.8°0%49%ESE 15.1 KM/H
14:00Senin17.1°17.1°0%49%ESE 14.4 KM/H
15:00Senin17.2°17.2°0%48%ESE 13.3 KM/H
16:00Senin17.1°17.1°0%48%SE 12.6 KM/H
17:00Senin16.8°16.8°0%49%SE 12.2 KM/H
18:00Senin16.1°16.1°0%51%SSE 13.7 KM/H
19:00Senin14.5°13.5°0%60%SSE 15.1 KM/H
20:00Senin12°10.6°0%71%SSE 14 KM/H
21:00Senin11°9.3°0%74%SSE 13.3 KM/H
22:00Senin11.2°9.5°0%72%SSE 13.7 KM/H
23:0011.3°9.9°0%70%SSE 12.2 KM/H




tutorials